createdAt,value
2023-04-21T00:01:53.182Z,15.07
2023-04-21T00:04:21.322Z,18.70
2023-04-21T00:06:50.537Z,16.65
2023-04-21T00:09:18.566Z,17.30
2023-04-21T00:11:46.466Z,17.00
2023-04-21T00:14:14.282Z,15.40
2023-04-21T00:16:42.153Z,18.92
2023-04-21T00:19:13.667Z,16.05
2023-04-21T00:21:41.390Z,17.50
2023-04-21T00:24:09.472Z,16.95
2023-04-21T00:26:37.190Z,16.77
2023-04-21T00:29:05.045Z,18.52
2023-04-21T00:31:32.796Z,16.30
2023-04-21T00:34:00.602Z,23.77
2023-04-21T00:36:29.686Z,21.35
2023-04-21T00:38:57.436Z,19.60
2023-04-21T00:41:25.237Z,19.05
2023-04-21T00:44:02.321Z,20.02
2023-04-21T00:46:30.460Z,20.30
2023-04-21T00:48:58.617Z,19.92
2023-04-21T00:51:29.573Z,22.50
2023-04-21T00:53:57.722Z,21.60
2023-04-21T00:56:26.926Z,21.80
2023-04-21T00:58:55.797Z,24.05
2023-04-21T01:01:24.220Z,21.55
2023-04-21T01:03:52.775Z,28.58
2023-04-21T01:06:20.773Z,20.23
2023-04-21T01:08:49.956Z,19.88
2023-04-21T01:11:17.711Z,20.55
2023-04-21T01:13:45.420Z,20.85
2023-04-21T01:16:17.958Z,21.70
2023-04-21T01:18:46.054Z,22.65
2023-04-21T01:21:14.287Z,20.10
2023-04-21T01:23:43.521Z,20.30
2023-04-21T01:26:11.330Z,19.58
2023-04-21T01:28:39.357Z,19.70
2023-04-21T01:31:07.342Z,25.80
2023-04-21T01:33:35.142Z,18.98
2023-04-21T01:36:03.100Z,20.17
2023-04-21T01:38:30.922Z,26.15
2023-04-21T01:41:00.187Z,24.23
2023-04-21T01:43:28.006Z,20.40
2023-04-21T01:45:55.983Z,19.83
2023-04-21T01:48:23.749Z,19.05
2023-04-21T01:50:51.641Z,20.42
2023-04-21T01:53:19.440Z,21.45
2023-04-21T01:55:47.160Z,20.60
2023-04-21T01:58:16.223Z,20.13
2023-04-21T02:00:43.957Z,20.27
2023-04-21T02:03:11.792Z,20.67
2023-04-21T02:05:39.755Z,18.65
2023-04-21T02:08:07.489Z,19.27
2023-04-21T02:10:35.814Z,18.80
2023-04-21T02:13:03.596Z,19.58
2023-04-21T02:15:33.579Z,23.00
2023-04-21T02:18:01.526Z,22.90
2023-04-21T02:20:29.394Z,20.45
2023-04-21T02:22:57.121Z,20.98
2023-04-21T02:25:25.547Z,25.95
2023-04-21T02:27:53.276Z,20.30
2023-04-21T02:30:21.122Z,21.08
2023-04-21T02:32:50.290Z,21.98
2023-04-21T02:35:18.050Z,18.85
2023-04-21T02:37:45.849Z,20.88
2023-04-21T02:40:14.120Z,21.45
2023-04-21T02:42:41.824Z,19.60
2023-04-21T02:45:11.300Z,22.00
2023-04-21T02:47:39.108Z,21.95
2023-04-21T02:50:08.849Z,23.38
2023-04-21T02:52:37.878Z,19.73
2023-04-21T02:55:06.127Z,20.90
2023-04-21T02:57:33.905Z,22.15
2023-04-21T03:00:01.662Z,24.33
2023-04-21T03:02:29.523Z,22.65
2023-04-21T03:04:57.355Z,24.30
2023-04-21T03:07:26.410Z,23.15
2023-04-21T03:09:54.163Z,21.40
2023-04-21T03:12:21.861Z,20.92
2023-04-21T03:14:49.563Z,23.35
2023-04-21T03:17:17.439Z,22.67
2023-04-21T03:19:45.384Z,23.02
2023-04-21T03:22:13.084Z,18.17
2023-04-21T03:24:42.230Z,22.75
2023-04-21T03:27:11.081Z,18.08
2023-04-21T03:29:38.982Z,17.48
2023-04-21T03:32:06.887Z,16.02
2023-04-21T03:34:34.663Z,19.10
2023-04-21T03:37:02.389Z,18.05
2023-04-21T03:39:30.128Z,14.35
2023-04-21T03:41:59.284Z,15.45
2023-04-21T03:44:28.625Z,16.55
2023-04-21T03:46:57.433Z,18.02
2023-04-21T03:49:25.410Z,15.20
2023-04-21T03:51:53.095Z,17.35
2023-04-21T03:54:21.102Z,17.40
2023-04-21T03:56:48.843Z,17.23
2023-04-21T03:59:18.218Z,19.13
2023-04-21T04:01:46.171Z,22.42
2023-04-21T04:04:14.279Z,18.35
2023-04-21T04:06:42.219Z,19.58
2023-04-21T04:09:09.964Z,17.98
2023-04-21T04:11:37.648Z,17.33
2023-04-21T04:14:05.435Z,15.98
2023-04-21T04:16:36.938Z,16.27
2023-04-21T04:19:04.878Z,20.98
2023-04-21T04:21:33.259Z,16.35
2023-04-21T04:24:02.308Z,14.93
2023-04-21T04:26:30.187Z,18.33
2023-04-21T04:28:57.977Z,16.13
2023-04-21T04:31:25.906Z,18.45
2023-04-21T04:33:55.795Z,21.35
2023-04-21T04:36:23.642Z,16.83
2023-04-21T04:38:51.534Z,16.02
2023-04-21T04:41:19.511Z,15.93
2023-04-21T04:43:47.355Z,18.13
2023-04-21T04:46:15.178Z,18.65
2023-04-21T04:48:42.889Z,16.67
2023-04-21T04:51:12.003Z,26.90
2023-04-21T04:53:39.813Z,20.60
2023-04-21T04:56:07.663Z,15.35
2023-04-21T04:58:35.701Z,14.02
2023-04-21T05:01:13.286Z,19.25
2023-04-21T05:03:41.222Z,16.05
2023-04-21T05:06:09.799Z,14.60
2023-04-21T05:08:40.114Z,16.10
2023-04-21T05:11:08.389Z,15.88
2023-04-21T05:13:37.554Z,17.27
2023-04-21T05:16:09.750Z,16.45
2023-04-21T05:18:37.592Z,19.80
2023-04-21T05:21:05.646Z,21.90
2023-04-21T05:23:33.374Z,16.63
2023-04-21T05:26:04.528Z,15.60
2023-04-21T05:28:33.053Z,16.30
2023-04-21T05:31:01.097Z,22.88
2023-04-21T05:33:31.644Z,17.77
2023-04-21T05:35:59.369Z,16.67
2023-04-21T05:38:27.294Z,18.88
2023-04-21T05:40:55.940Z,15.73
2023-04-21T05:43:24.971Z,17.38
2023-04-21T05:45:52.915Z,34.03
2023-04-21T05:48:20.836Z,23.38
2023-04-21T05:50:48.599Z,16.15
2023-04-21T05:53:16.424Z,17.45
2023-04-21T05:55:44.206Z,14.75
2023-04-21T05:58:11.954Z,15.52
2023-04-21T06:00:41.005Z,55.25
2023-04-21T06:03:09.033Z,64.15
2023-04-21T06:05:37.429Z,23.95
2023-04-21T06:08:05.421Z,21.83
2023-04-21T06:10:33.209Z,21.92
2023-04-21T06:13:01.055Z,28.92
2023-04-21T06:15:28.845Z,24.77
2023-04-21T06:17:58.056Z,20.83
2023-04-21T06:20:25.843Z,16.02
2023-04-21T06:22:54.028Z,18.45
2023-04-21T06:25:21.949Z,17.33
2023-04-21T06:27:49.672Z,18.55
2023-04-21T06:30:17.601Z,18.05
2023-04-21T06:32:46.134Z,21.63
2023-04-21T06:35:17.196Z,17.63
2023-04-21T06:37:46.396Z,19.45
2023-04-21T06:40:15.975Z,19.60
2023-04-21T06:42:43.836Z,15.98
2023-04-21T06:45:12.304Z,17.42
2023-04-21T06:47:40.242Z,16.13
2023-04-21T06:50:09.049Z,16.65
2023-04-21T06:52:38.378Z,13.88
2023-04-21T06:55:07.437Z,15.75
2023-04-21T06:57:35.562Z,16.48
2023-04-21T07:00:05.559Z,14.55
2023-04-21T07:02:33.552Z,12.15
2023-04-21T07:05:01.501Z,13.23
2023-04-21T07:07:29.291Z,56.42
2023-04-21T07:09:58.503Z,26.85
2023-04-21T07:12:26.259Z,17.52
2023-04-21T07:14:54.060Z,21.48
2023-04-21T07:17:21.771Z,14.85
2023-04-21T07:19:49.487Z,19.90
2023-04-21T07:22:17.233Z,14.82
2023-04-21T07:24:44.951Z,12.70
2023-04-21T07:27:13.979Z,13.50
2023-04-21T07:29:41.828Z,14.02
2023-04-21T07:32:09.647Z,12.02
2023-04-21T07:34:37.467Z,13.30
2023-04-21T07:37:05.259Z,13.60
2023-04-21T07:39:32.987Z,11.57
2023-04-21T07:42:00.698Z,13.75
2023-04-21T07:44:29.993Z,14.95
2023-04-21T07:46:57.712Z,9.73
2023-04-21T07:49:25.481Z,9.77
2023-04-21T07:51:53.309Z,9.23
2023-04-21T07:54:21.048Z,9.32
2023-04-21T07:56:48.745Z,10.57
2023-04-21T07:59:16.549Z,11.45
2023-04-21T08:01:47.369Z,10.45
2023-04-21T08:04:17.802Z,10.45
2023-04-21T08:06:46.981Z,13.30
2023-04-21T08:09:16.958Z,13.93
2023-04-21T08:11:47.857Z,13.07
2023-04-21T08:14:18.519Z,9.65
2023-04-21T08:16:50.128Z,10.60
2023-04-21T08:19:20.015Z,8.52
2023-04-21T08:21:51.267Z,8.35
2023-04-21T08:24:21.268Z,7.28
2023-04-21T08:26:51.294Z,8.23
2023-04-21T08:29:21.042Z,7.75
2023-04-21T08:31:52.313Z,7.82
2023-04-21T08:34:23.610Z,9.00
2023-04-21T08:36:55.219Z,7.80
2023-04-21T08:39:24.985Z,7.60
2023-04-21T08:41:55.218Z,9.85
2023-04-21T08:44:24.836Z,8.07
2023-04-21T08:46:57.802Z,7.60
2023-04-21T08:49:31.282Z,9.63
2023-04-21T08:52:02.358Z,8.50
2023-04-21T08:54:31.990Z,7.07
2023-04-21T08:57:11.865Z,9.05
2023-04-21T08:59:42.273Z,7.95
2023-04-21T09:02:13.587Z,6.82
2023-04-21T09:04:42.767Z,7.93
2023-04-21T09:07:11.469Z,9.65
2023-04-21T09:09:53.663Z,7.45
2023-04-21T09:12:21.744Z,8.43
2023-04-21T09:14:49.626Z,7.50
2023-04-21T09:17:22.582Z,7.95
2023-04-21T09:19:50.906Z,6.32
2023-04-21T09:22:19.632Z,6.45
2023-04-21T09:24:48.186Z,7.10
2023-04-21T09:27:17.656Z,7.13
2023-04-21T09:29:51.428Z,5.85
2023-04-21T09:32:21.498Z,5.50
2023-04-21T09:34:49.311Z,6.72
2023-04-21T09:37:18.984Z,6.55
2023-04-21T09:40:03.498Z,6.75
2023-04-21T09:42:37.790Z,5.88
2023-04-21T09:45:25.441Z,6.35
2023-04-21T09:48:00.800Z,5.88
2023-04-21T09:53:05.003Z,6.38
2023-04-21T09:55:33.441Z,5.97
2023-04-21T09:58:01.923Z,6.13
2023-04-21T10:00:31.084Z,16.73
2023-04-21T10:03:05.717Z,8.13
2023-04-21T10:05:33.957Z,11.07
2023-04-21T10:08:01.805Z,8.57
2023-04-21T10:10:31.806Z,6.90
2023-04-21T10:13:00.209Z,6.50
2023-04-21T10:15:32.716Z,7.15
2023-04-21T10:18:16.958Z,6.97
2023-04-21T10:20:58.158Z,6.55
2023-04-21T10:23:33.903Z,14.65
2023-04-21T10:26:11.341Z,23.83
2023-04-21T10:28:49.468Z,7.00
2023-04-21T10:31:51.966Z,6.93
2023-04-21T10:34:23.319Z,7.05
2023-04-21T10:37:10.858Z,8.15
2023-04-21T10:39:45.521Z,8.35
2023-04-21T10:42:27.520Z,7.75
2023-04-21T10:45:09.952Z,11.30
2023-04-21T10:47:44.299Z,7.75
2023-04-21T10:50:16.569Z,8.45
2023-04-21T10:52:52.584Z,7.18
2023-04-21T10:55:21.778Z,6.32
2023-04-21T10:57:49.839Z,7.05
2023-04-21T11:00:20.676Z,29.02
2023-04-21T11:03:02.768Z,12.02
2023-04-21T11:05:38.388Z,9.90
2023-04-21T11:08:12.340Z,9.65
2023-04-21T11:10:57.742Z,7.80
2023-04-21T11:13:27.439Z,10.40
2023-04-21T11:16:00.234Z,7.90
2023-04-21T11:18:41.861Z,9.43
2023-04-21T11:21:13.572Z,9.95
2023-04-21T11:23:42.446Z,10.75
2023-04-21T11:26:10.459Z,7.75
2023-04-21T11:28:38.265Z,7.88
2023-04-21T11:31:06.236Z,8.85
2023-04-21T11:33:37.264Z,7.25
2023-04-21T11:36:06.222Z,7.97
2023-04-21T11:38:40.796Z,11.45
2023-04-21T11:41:09.923Z,8.13
2023-04-21T11:43:37.961Z,7.93
2023-04-21T11:46:18.694Z,8.85
2023-04-21T11:48:47.091Z,9.73
2023-04-21T11:51:21.331Z,8.23
2023-04-21T11:56:21.713Z,8.20
2023-04-21T11:58:51.526Z,8.00
2023-04-21T12:01:20.139Z,8.77
2023-04-21T12:03:55.750Z,8.02
2023-04-21T12:06:25.193Z,7.95
2023-04-21T12:09:03.982Z,8.18
2023-04-21T12:11:32.874Z,7.38
2023-04-21T12:14:01.092Z,7.10
2023-04-21T12:16:30.292Z,7.38
2023-04-21T12:18:58.434Z,6.72
2023-04-21T12:21:28.835Z,7.85
2023-04-21T12:23:56.723Z,10.73
2023-04-21T12:26:26.133Z,7.75
2023-04-21T12:28:56.068Z,6.65
2023-04-21T12:31:23.939Z,7.43
2023-04-21T12:33:51.794Z,13.05
2023-04-21T12:36:19.730Z,6.80
2023-04-21T12:38:47.559Z,5.95
2023-04-21T12:41:15.430Z,7.15
2023-04-21T12:43:44.517Z,7.07
2023-04-21T12:46:12.350Z,5.47
2023-04-21T12:48:40.149Z,6.60
2023-04-21T12:51:08.182Z,6.28
2023-04-21T12:53:36.756Z,7.40
2023-04-21T12:56:05.540Z,6.22
2023-04-21T12:58:33.610Z,5.75
2023-04-21T13:01:02.748Z,5.63
2023-04-21T13:03:30.820Z,6.63
2023-04-21T13:05:59.159Z,5.68
2023-04-21T13:08:27.217Z,8.23
2023-04-21T13:10:55.513Z,7.18
2023-04-21T13:13:23.403Z,8.38
2023-04-21T13:15:51.347Z,7.72
2023-04-21T13:18:20.493Z,8.07
2023-04-21T13:20:48.284Z,6.68
2023-04-21T13:23:16.226Z,7.07
2023-04-21T13:25:44.797Z,8.35
2023-04-21T13:28:13.779Z,6.50
2023-04-21T13:30:41.722Z,8.93
2023-04-21T13:33:09.747Z,5.97
2023-04-21T13:35:38.986Z,7.10
2023-04-21T13:38:06.793Z,8.75
2023-04-21T13:40:34.631Z,8.50
2023-04-21T13:43:02.575Z,7.07
2023-04-21T13:45:30.401Z,8.45
2023-04-21T13:47:58.612Z,6.80
2023-04-21T13:50:26.736Z,8.85
2023-04-21T13:52:55.886Z,12.18
2023-04-21T13:55:23.788Z,9.02
2023-04-21T13:57:51.664Z,9.63
2023-04-21T14:00:19.913Z,8.43
2023-04-21T14:02:47.898Z,6.90
2023-04-21T14:05:15.999Z,7.53
2023-04-21T14:07:44.509Z,9.32
2023-04-21T14:10:13.672Z,7.50
2023-04-21T14:12:41.530Z,6.90
2023-04-21T14:15:09.927Z,9.05
2023-04-21T14:17:37.929Z,7.20
2023-04-21T14:20:07.318Z,5.95
2023-04-21T14:22:35.161Z,6.95
2023-04-21T14:25:03.212Z,9.15
2023-04-21T14:27:33.294Z,7.80
2023-04-21T14:30:01.285Z,7.65
2023-04-21T14:32:29.254Z,8.73
2023-04-21T14:34:58.647Z,6.80
2023-04-21T14:37:27.044Z,8.30
2023-04-21T14:39:55.011Z,6.70
2023-04-21T14:42:22.780Z,8.73
2023-04-21T14:44:51.921Z,13.07
2023-04-21T14:47:19.856Z,6.05
2023-04-21T14:49:49.782Z,5.45
2023-04-21T14:52:18.905Z,7.70
2023-04-21T14:54:46.782Z,8.82
2023-04-21T14:57:19.683Z,7.55
2023-04-21T14:59:49.152Z,9.15
2023-04-21T15:02:19.437Z,6.47
2023-04-21T15:04:47.623Z,5.82
2023-04-21T15:07:18.762Z,5.93
2023-04-21T15:09:51.067Z,5.15
2023-04-21T15:12:19.042Z,11.23
2023-04-21T15:14:46.883Z,6.82
2023-04-21T15:17:14.802Z,6.20
2023-04-21T15:19:43.981Z,9.32
2023-04-21T15:22:12.146Z,10.80
2023-04-21T15:24:40.130Z,7.10
2023-04-21T15:27:07.861Z,7.07
2023-04-21T15:29:35.892Z,7.68
2023-04-21T15:32:03.926Z,7.65
2023-04-21T15:34:31.711Z,9.25
2023-04-21T15:37:00.912Z,5.00
2023-04-21T15:39:28.718Z,6.68
2023-04-21T15:41:58.973Z,7.28
2023-04-21T15:44:26.677Z,6.80
2023-04-21T15:47:05.807Z,6.10
2023-04-21T15:49:34.025Z,6.85
2023-04-21T15:52:04.214Z,5.95
2023-04-21T15:54:33.971Z,7.43
2023-04-21T15:57:01.976Z,7.00
2023-04-21T15:59:29.775Z,7.03
2023-04-21T16:01:57.787Z,6.95
2023-04-21T16:04:25.705Z,6.80
2023-04-21T16:06:53.638Z,6.85
2023-04-21T16:09:23.633Z,6.43
2023-04-21T16:11:51.840Z,5.90
2023-04-21T16:14:19.908Z,6.00
2023-04-21T16:16:47.903Z,6.82
2023-04-21T16:19:16.251Z,5.63
2023-04-21T16:21:44.249Z,8.52
2023-04-21T16:24:12.206Z,7.03
2023-04-21T16:26:41.389Z,8.52
2023-04-21T16:29:09.178Z,7.65
2023-04-21T16:31:37.096Z,8.30
2023-04-21T16:34:05.107Z,8.57
2023-04-21T16:36:33.458Z,9.73
2023-04-21T16:39:01.421Z,7.53
2023-04-21T16:41:30.303Z,8.75
2023-04-21T16:43:59.451Z,1.55
2023-04-21T16:46:27.213Z,1.75
2023-04-21T16:48:55.109Z,1.45
2023-04-21T16:51:22.983Z,1.13
2023-04-21T16:53:50.921Z,1.58
2023-04-21T16:56:20.203Z,0.77
2023-04-21T16:58:48.001Z,1.77
2023-04-21T17:01:17.181Z,1.38
2023-04-21T17:03:45.822Z,2.00
2023-04-21T17:06:17.269Z,1.65
2023-04-21T17:08:45.100Z,1.75
2023-04-21T17:11:13.006Z,2.95
2023-04-21T17:13:40.708Z,1.67
2023-04-21T17:16:08.991Z,1.77
2023-04-21T17:18:38.142Z,3.22
2023-04-21T17:21:06.731Z,3.35
2023-04-21T17:23:34.571Z,1.15
2023-04-21T17:26:03.637Z,1.00
2023-04-21T17:28:32.055Z,4.65
2023-04-21T17:31:13.906Z,4.18
2023-04-21T17:33:44.783Z,0.95
2023-04-21T17:36:12.722Z,3.45
2023-04-21T17:38:42.560Z,0.90
2023-04-21T17:41:10.467Z,1.20
2023-04-21T17:43:38.380Z,2.35
2023-04-21T17:46:07.354Z,5.85
2023-04-21T17:48:35.149Z,2.88
2023-04-21T17:51:04.704Z,1.80
2023-04-21T17:53:32.708Z,1.83
2023-04-21T17:56:01.014Z,1.20
2023-04-21T17:58:29.145Z,1.98
2023-04-21T18:00:57.136Z,1.83
2023-04-21T18:03:25.094Z,2.92
2023-04-21T18:05:53.145Z,3.25
2023-04-21T18:08:22.667Z,3.53
2023-04-21T18:10:50.613Z,1.33
2023-04-21T18:13:18.318Z,1.75
2023-04-21T18:15:46.088Z,0.73
2023-04-21T18:18:14.039Z,1.77
2023-04-21T18:20:41.817Z,2.13
2023-04-21T18:23:09.817Z,1.63
2023-04-21T18:25:42.734Z,2.22
2023-04-21T18:28:12.335Z,1.45
2023-04-21T18:30:40.533Z,1.40
2023-04-21T18:33:09.801Z,1.10
2023-04-21T18:35:37.845Z,2.00
2023-04-21T18:38:08.002Z,1.52
2023-04-21T18:40:36.995Z,2.63
2023-04-21T18:43:06.647Z,2.55
2023-04-21T18:45:34.880Z,2.38
2023-04-21T18:48:02.713Z,3.90
2023-04-21T18:50:32.201Z,3.00
2023-04-21T18:53:00.297Z,3.10
2023-04-21T18:55:28.110Z,3.60
2023-04-21T18:57:55.890Z,2.95
2023-04-21T19:00:25.268Z,3.45
2023-04-21T19:02:53.201Z,3.78
2023-04-21T19:05:21.111Z,4.50
2023-04-21T19:07:48.948Z,5.18
2023-04-21T19:10:16.972Z,3.70
2023-04-21T19:12:45.001Z,4.25
2023-04-21T19:15:13.110Z,4.50
2023-04-21T19:17:42.993Z,4.68
2023-04-21T19:20:12.482Z,3.20
2023-04-21T19:22:40.250Z,4.93
2023-04-21T19:25:08.637Z,4.68
2023-04-21T19:27:36.850Z,3.40
2023-04-21T19:30:05.806Z,5.03
2023-04-21T19:32:33.856Z,4.38
2023-04-21T19:35:03.111Z,2.83
2023-04-21T19:37:33.593Z,2.85
2023-04-21T19:40:03.104Z,3.00
2023-04-21T19:42:31.464Z,3.95
2023-04-21T19:44:59.160Z,5.03
2023-04-21T19:47:27.102Z,6.35
2023-04-21T19:49:54.872Z,4.38
2023-04-21T19:52:23.948Z,4.78
2023-04-21T19:54:51.678Z,3.58
2023-04-21T19:57:19.451Z,6.35
2023-04-21T19:59:48.947Z,11.35
2023-04-21T20:02:16.749Z,4.75
2023-04-21T20:04:44.703Z,4.32
2023-04-21T20:07:12.571Z,4.28
2023-04-21T20:09:41.735Z,3.55
2023-04-21T20:12:09.536Z,5.43
2023-04-21T20:14:38.726Z,3.35
2023-04-21T20:17:06.490Z,4.40
2023-04-21T20:19:35.597Z,4.30
2023-04-21T20:22:03.805Z,5.68
2023-04-21T20:24:31.935Z,3.83
2023-04-21T20:27:01.847Z,4.05
2023-04-21T20:29:30.926Z,4.95
2023-04-21T20:31:58.752Z,5.63
2023-04-21T20:34:26.850Z,3.60
2023-04-21T20:36:55.516Z,5.15
2023-04-21T20:39:24.927Z,3.78
2023-04-21T20:42:04.736Z,5.05
2023-04-21T20:44:42.311Z,6.78
2023-04-21T20:47:11.643Z,6.10
2023-04-21T20:49:40.302Z,4.90
2023-04-21T20:52:08.549Z,5.22
2023-04-21T20:54:36.629Z,5.63
2023-04-21T20:57:04.574Z,4.43
2023-04-21T20:59:32.518Z,4.53
2023-04-21T21:02:01.947Z,5.43
2023-04-21T21:04:29.934Z,2.92
2023-04-21T21:06:57.858Z,4.20
2023-04-21T21:09:26.027Z,5.60
2023-04-21T21:11:53.842Z,2.78
2023-04-21T21:14:21.680Z,4.10
2023-04-21T21:16:49.759Z,2.88
2023-04-21T21:19:18.873Z,3.22
2023-04-21T21:21:46.658Z,2.92
2023-04-21T21:24:14.457Z,2.35
2023-04-21T21:26:42.918Z,2.45
2023-04-21T21:29:10.745Z,2.65
2023-04-21T21:31:38.477Z,3.13
2023-04-21T21:34:06.203Z,3.88
2023-04-21T21:36:35.998Z,3.28
2023-04-21T21:39:03.695Z,3.50
2023-04-21T21:41:31.464Z,3.65
2023-04-21T21:43:59.409Z,2.25
2023-04-21T21:46:27.273Z,3.03
2023-04-21T21:48:55.198Z,3.78
2023-04-21T21:51:23.055Z,6.63
2023-04-21T21:53:52.117Z,2.35
2023-04-21T21:56:19.957Z,5.00
2023-04-21T21:58:48.022Z,3.28
2023-04-21T22:01:18.102Z,3.78
2023-04-21T22:03:47.127Z,5.25
2023-04-21T22:06:17.217Z,6.45
2023-04-21T22:08:45.457Z,3.25
2023-04-21T22:11:14.580Z,1.38
2023-04-21T22:13:42.322Z,3.15
2023-04-21T22:16:10.060Z,1.90
2023-04-21T22:18:38.096Z,2.67
2023-04-21T22:21:05.980Z,2.78
2023-04-21T22:23:33.831Z,1.40
2023-04-21T22:26:01.595Z,3.90
2023-04-21T22:28:30.710Z,1.83
2023-04-21T22:30:58.523Z,3.22
2023-04-21T22:33:26.420Z,2.35
2023-04-21T22:35:54.175Z,2.30
2023-04-21T22:38:21.939Z,2.45
2023-04-21T22:40:49.905Z,3.00
2023-04-21T22:43:17.678Z,5.82
2023-04-21T22:45:46.787Z,3.45
2023-04-21T22:48:14.866Z,3.83
2023-04-21T22:50:44.757Z,4.25
2023-04-21T22:53:13.222Z,3.60
2023-04-21T22:55:41.049Z,6.57
2023-04-21T22:58:08.852Z,5.55
2023-04-21T23:00:36.773Z,4.80
2023-04-21T23:03:06.087Z,4.18
2023-04-21T23:05:34.111Z,4.93
2023-04-21T23:08:01.827Z,3.58
2023-04-21T23:10:30.015Z,3.95
2023-04-21T23:12:58.043Z,3.53
2023-04-21T23:15:26.805Z,4.05
2023-04-21T23:17:54.733Z,4.15
2023-04-21T23:20:23.905Z,3.10
2023-04-21T23:22:52.097Z,3.38
2023-04-21T23:25:19.986Z,3.03
2023-04-21T23:27:47.738Z,5.78
2023-04-21T23:30:15.735Z,4.32
2023-04-21T23:32:43.626Z,3.47
2023-04-21T23:35:11.529Z,2.90
2023-04-21T23:37:40.632Z,2.88
2023-04-21T23:40:11.228Z,3.20
2023-04-21T23:42:39.356Z,4.05
2023-04-21T23:45:08.474Z,3.25
2023-04-21T23:47:36.213Z,3.17
2023-04-21T23:50:04.488Z,7.10
2023-04-21T23:52:32.785Z,3.92
2023-04-21T23:55:01.847Z,4.03
2023-04-21T23:57:29.690Z,6.00
2023-04-21T23:59:57.379Z,4.68
